sensor_id;sensor_type;location;lat;lon;timestamp;temperature;humidity
31677;DHT22;18385;51.572;6.578;2024-02-21T00:00:46;13.10;63.80
31677;DHT22;18385;51.572;6.578;2024-02-21T00:03:12;13.10;63.70
31677;DHT22;18385;51.572;6.578;2024-02-21T00:05:38;13.10;63.70
31677;DHT22;18385;51.572;6.578;2024-02-21T00:08:04;13.10;63.70
31677;DHT22;18385;51.572;6.578;2024-02-21T00:10:30;13.10;63.70
31677;DHT22;18385;51.572;6.578;2024-02-21T00:12:58;13.10;63.70
31677;DHT22;18385;51.572;6.578;2024-02-21T00:15:25;13.10;63.80
31677;DHT22;18385;51.572;6.578;2024-02-21T00:17:51;13.10;63.80
31677;DHT22;18385;51.572;6.578;2024-02-21T00:20:16;13.10;63.80
31677;DHT22;18385;51.572;6.578;2024-02-21T00:22:43;13.00;63.80
31677;DHT22;18385;51.572;6.578;2024-02-21T00:25:09;13.10;63.90
31677;DHT22;18385;51.572;6.578;2024-02-21T00:27:35;13.00;63.80
31677;DHT22;18385;51.572;6.578;2024-02-21T00:30:02;13.00;63.90
31677;DHT22;18385;51.572;6.578;2024-02-21T00:32:28;13.10;63.90
31677;DHT22;18385;51.572;6.578;2024-02-21T00:34:53;13.00;63.90
31677;DHT22;18385;51.572;6.578;2024-02-21T00:37:19;13.00;64.00
31677;DHT22;18385;51.572;6.578;2024-02-21T00:39:44;13.00;64.00
31677;DHT22;18385;51.572;6.578;2024-02-21T00:42:10;13.00;64.10
31677;DHT22;18385;51.572;6.578;2024-02-21T00:44:36;13.10;64.10
31677;DHT22;18385;51.572;6.578;2024-02-21T00:47:01;13.10;64.00
31677;DHT22;18385;51.572;6.578;2024-02-21T00:49:27;13.10;64.00
31677;DHT22;18385;51.572;6.578;2024-02-21T00:51:53;13.10;64.00
31677;DHT22;18385;51.572;6.578;2024-02-21T00:54:18;13.00;64.00
31677;DHT22;18385;51.572;6.578;2024-02-21T00:56:44;13.00;64.00
31677;DHT22;18385;51.572;6.578;2024-02-21T00:59:11;13.00;64.10
31677;DHT22;18385;51.572;6.578;2024-02-21T01:01:36;13.10;64.20
31677;DHT22;18385;51.572;6.578;2024-02-21T01:04:02;13.00;64.10
31677;DHT22;18385;51.572;6.578;2024-02-21T01:06:28;13.00;64.20
31677;DHT22;18385;51.572;6.578;2024-02-21T01:08:53;13.10;64.30
31677;DHT22;18385;51.572;6.578;2024-02-21T01:11:19;13.10;64.20
31677;DHT22;18385;51.572;6.578;2024-02-21T01:13:45;13.00;64.20
31677;DHT22;18385;51.572;6.578;2024-02-21T01:16:10;13.00;64.20
31677;DHT22;18385;51.572;6.578;2024-02-21T01:18:39;13.00;64.30
31677;DHT22;18385;51.572;6.578;2024-02-21T01:21:05;13.00;64.30
31677;DHT22;18385;51.572;6.578;2024-02-21T01:23:35;12.90;64.20
31677;DHT22;18385;51.572;6.578;2024-02-21T01:26:02;12.80;64.20
31677;DHT22;18385;51.572;6.578;2024-02-21T01:28:29;12.70;64.40
31677;DHT22;18385;51.572;6.578;2024-02-21T01:30:56;12.70;64.50
31677;DHT22;18385;51.572;6.578;2024-02-21T01:33:22;12.70;64.50
31677;DHT22;18385;51.572;6.578;2024-02-21T01:35:47;12.60;64.50
31677;DHT22;18385;51.572;6.578;2024-02-21T01:38:13;12.60;64.60
31677;DHT22;18385;51.572;6.578;2024-02-21T01:40:39;12.50;64.60
31677;DHT22;18385;51.572;6.578;2024-02-21T01:43:16;12.40;64.70
31677;DHT22;18385;51.572;6.578;2024-02-21T01:45:44;12.30;64.90
31677;DHT22;18385;51.572;6.578;2024-02-21T01:48:12;12.20;65.00
31677;DHT22;18385;51.572;6.578;2024-02-21T01:50:39;12.30;65.30
31677;DHT22;18385;51.572;6.578;2024-02-21T01:53:05;12.30;65.40
31677;DHT22;18385;51.572;6.578;2024-02-21T01:55:31;12.40;66.20
31677;DHT22;18385;51.572;6.578;2024-02-21T01:57:57;12.50;65.30
31677;DHT22;18385;51.572;6.578;2024-02-21T02:00:23;12.50;65.20
31677;DHT22;18385;51.572;6.578;2024-02-21T02:02:49;12.60;65.20
31677;DHT22;18385;51.572;6.578;2024-02-21T02:05:16;12.60;65.10
31677;DHT22;18385;51.572;6.578;2024-02-21T02:07:44;12.60;65.10
31677;DHT22;18385;51.572;6.578;2024-02-21T02:10:09;12.60;65.10
31677;DHT22;18385;51.572;6.578;2024-02-21T02:12:35;12.60;65.10
31677;DHT22;18385;51.572;6.578;2024-02-21T02:15:02;12.60;65.10
31677;DHT22;18385;51.572;6.578;2024-02-21T02:17:30;12.60;65.10
31677;DHT22;18385;51.572;6.578;2024-02-21T02:19:56;12.50;65.00
31677;DHT22;18385;51.572;6.578;2024-02-21T02:22:24;12.50;65.20
31677;DHT22;18385;51.572;6.578;2024-02-21T02:24:53;12.50;65.20
31677;DHT22;18385;51.572;6.578;2024-02-21T02:27:19;12.40;65.10
31677;DHT22;18385;51.572;6.578;2024-02-21T02:29:45;12.40;65.20
31677;DHT22;18385;51.572;6.578;2024-02-21T02:32:11;12.30;65.20
31677;DHT22;18385;51.572;6.578;2024-02-21T02:34:37;12.20;65.40
31677;DHT22;18385;51.572;6.578;2024-02-21T02:37:03;12.20;66.30
31677;DHT22;18385;51.572;6.578;2024-02-21T02:39:28;12.20;65.50
31677;DHT22;18385;51.572;6.578;2024-02-21T02:41:54;12.20;65.60
31677;DHT22;18385;51.572;6.578;2024-02-21T02:44:19;12.30;65.70
31677;DHT22;18385;51.572;6.578;2024-02-21T02:46:45;12.30;65.80
31677;DHT22;18385;51.572;6.578;2024-02-21T02:49:11;12.30;65.70
31677;DHT22;18385;51.572;6.578;2024-02-21T02:51:36;12.40;65.70
31677;DHT22;18385;51.572;6.578;2024-02-21T02:54:03;12.40;65.70
31677;DHT22;18385;51.572;6.578;2024-02-21T02:56:28;12.40;65.70
31677;DHT22;18385;51.572;6.578;2024-02-21T02:58:54;12.50;65.80
31677;DHT22;18385;51.572;6.578;2024-02-21T03:01:19;12.60;65.70
31677;DHT22;18385;51.572;6.578;2024-02-21T03:03:45;12.60;65.60
31677;DHT22;18385;51.572;6.578;2024-02-21T03:06:12;12.60;65.50
31677;DHT22;18385;51.572;6.578;2024-02-21T03:08:38;12.60;65.50
31677;DHT22;18385;51.572;6.578;2024-02-21T03:11:05;12.70;65.50
31677;DHT22;18385;51.572;6.578;2024-02-21T03:13:31;12.70;65.50
31677;DHT22;18385;51.572;6.578;2024-02-21T03:15:57;12.70;65.50
31677;DHT22;18385;51.572;6.578;2024-02-21T03:18:22;12.70;65.40
31677;DHT22;18385;51.572;6.578;2024-02-21T03:20:48;12.70;65.40
31677;DHT22;18385;51.572;6.578;2024-02-21T03:23:14;12.70;65.40
31677;DHT22;18385;51.572;6.578;2024-02-21T03:25:39;12.70;65.30
31677;DHT22;18385;51.572;6.578;2024-02-21T03:28:05;12.80;65.40
31677;DHT22;18385;51.572;6.578;2024-02-21T03:30:31;12.70;65.30
31677;DHT22;18385;51.572;6.578;2024-02-21T03:32:56;12.80;65.40
31677;DHT22;18385;51.572;6.578;2024-02-21T03:35:22;12.80;65.40
31677;DHT22;18385;51.572;6.578;2024-02-21T03:37:52;12.80;65.40
31677;DHT22;18385;51.572;6.578;2024-02-21T03:40:17;12.80;65.40
31677;DHT22;18385;51.572;6.578;2024-02-21T03:42:43;12.80;65.40
31677;DHT22;18385;51.572;6.578;2024-02-21T03:45:09;12.80;65.40
31677;DHT22;18385;51.572;6.578;2024-02-21T03:47:35;12.80;65.40
31677;DHT22;18385;51.572;6.578;2024-02-21T03:50:00;12.80;65.40
31677;DHT22;18385;51.572;6.578;2024-02-21T03:52:26;12.80;65.40
31677;DHT22;18385;51.572;6.578;2024-02-21T03:54:53;12.80;65.40
31677;DHT22;18385;51.572;6.578;2024-02-21T03:57:20;12.80;65.40
31677;DHT22;18385;51.572;6.578;2024-02-21T03:59:49;12.80;65.50
31677;DHT22;18385;51.572;6.578;2024-02-21T04:02:15;12.80;65.40
31677;DHT22;18385;51.572;6.578;2024-02-21T04:04:43;12.80;65.40
31677;DHT22;18385;51.572;6.578;2024-02-21T04:07:12;12.80;65.40
31677;DHT22;18385;51.572;6.578;2024-02-21T04:09:38;12.80;65.30
31677;DHT22;18385;51.572;6.578;2024-02-21T04:12:04;12.80;65.40
31677;DHT22;18385;51.572;6.578;2024-02-21T04:14:29;12.80;65.30
31677;DHT22;18385;51.572;6.578;2024-02-21T04:16:55;12.80;65.30
31677;DHT22;18385;51.572;6.578;2024-02-21T04:19:21;12.80;65.30
31677;DHT22;18385;51.572;6.578;2024-02-21T04:21:46;12.90;65.30
31677;DHT22;18385;51.572;6.578;2024-02-21T04:24:12;12.90;65.20
31677;DHT22;18385;51.572;6.578;2024-02-21T04:26:37;12.90;65.20
31677;DHT22;18385;51.572;6.578;2024-02-21T04:29:03;12.90;65.20
31677;DHT22;18385;51.572;6.578;2024-02-21T04:31:29;12.90;65.20
31677;DHT22;18385;51.572;6.578;2024-02-21T04:33:55;12.90;65.20
31677;DHT22;18385;51.572;6.578;2024-02-21T04:36:20;12.90;65.10
31677;DHT22;18385;51.572;6.578;2024-02-21T04:38:46;12.90;65.10
31677;DHT22;18385;51.572;6.578;2024-02-21T04:41:12;12.90;65.00
31677;DHT22;18385;51.572;6.578;2024-02-21T04:43:37;13.00;65.00
31677;DHT22;18385;51.572;6.578;2024-02-21T04:46:04;12.90;64.90
31677;DHT22;18385;51.572;6.578;2024-02-21T04:48:29;12.90;64.90
31677;DHT22;18385;51.572;6.578;2024-02-21T04:50:55;12.90;64.90
31677;DHT22;18385;51.572;6.578;2024-02-21T04:53:21;12.90;65.00
31677;DHT22;18385;51.572;6.578;2024-02-21T04:55:47;12.90;65.00
31677;DHT22;18385;51.572;6.578;2024-02-21T04:58:12;12.90;65.00
31677;DHT22;18385;51.572;6.578;2024-02-21T05:00:38;12.80;65.00
31677;DHT22;18385;51.572;6.578;2024-02-21T05:03:04;12.90;65.10
31677;DHT22;18385;51.572;6.578;2024-02-21T05:05:29;12.80;65.00
31677;DHT22;18385;51.572;6.578;2024-02-21T05:07:55;12.90;65.00
31677;DHT22;18385;51.572;6.578;2024-02-21T05:10:21;12.90;65.00
31677;DHT22;18385;51.572;6.578;2024-02-21T05:12:46;12.90;65.00
31677;DHT22;18385;51.572;6.578;2024-02-21T05:15:12;12.90;65.00
31677;DHT22;18385;51.572;6.578;2024-02-21T05:17:38;12.90;65.00
31677;DHT22;18385;51.572;6.578;2024-02-21T05:20:04;12.90;65.00
31677;DHT22;18385;51.572;6.578;2024-02-21T05:22:30;12.90;65.00
31677;DHT22;18385;51.572;6.578;2024-02-21T05:24:55;12.80;64.90
31677;DHT22;18385;51.572;6.578;2024-02-21T05:27:21;12.80;65.00
31677;DHT22;18385;51.572;6.578;2024-02-21T05:29:46;12.80;64.90
31677;DHT22;18385;51.572;6.578;2024-02-21T05:32:13;12.80;65.00
31677;DHT22;18385;51.572;6.578;2024-02-21T05:34:39;12.80;64.90
31677;DHT22;18385;51.572;6.578;2024-02-21T05:37:05;12.80;64.90
31677;DHT22;18385;51.572;6.578;2024-02-21T05:39:30;12.80;65.00
31677;DHT22;18385;51.572;6.578;2024-02-21T05:41:56;12.80;65.00
31677;DHT22;18385;51.572;6.578;2024-02-21T05:44:22;12.80;65.00
31677;DHT22;18385;51.572;6.578;2024-02-21T05:46:47;12.80;64.90
31677;DHT22;18385;51.572;6.578;2024-02-21T05:49:13;12.80;65.00
31677;DHT22;18385;51.572;6.578;2024-02-21T05:51:40;12.80;64.90
31677;DHT22;18385;51.572;6.578;2024-02-21T05:54:05;12.80;64.90
31677;DHT22;18385;51.572;6.578;2024-02-21T05:56:32;12.80;64.80
31677;DHT22;18385;51.572;6.578;2024-02-21T05:58:58;12.80;64.90
31677;DHT22;18385;51.572;6.578;2024-02-21T06:01:24;12.80;64.90
31677;DHT22;18385;51.572;6.578;2024-02-21T06:03:50;12.80;64.90
31677;DHT22;18385;51.572;6.578;2024-02-21T06:06:16;12.80;64.90
31677;DHT22;18385;51.572;6.578;2024-02-21T06:08:41;12.80;64.90
31677;DHT22;18385;51.572;6.578;2024-02-21T06:11:07;12.80;65.00
31677;DHT22;18385;51.572;6.578;2024-02-21T06:13:33;12.70;64.90
31677;DHT22;18385;51.572;6.578;2024-02-21T06:15:58;12.80;65.00
31677;DHT22;18385;51.572;6.578;2024-02-21T06:18:24;12.70;65.00
31677;DHT22;18385;51.572;6.578;2024-02-21T06:20:50;12.70;64.90
31677;DHT22;18385;51.572;6.578;2024-02-21T06:23:16;12.80;65.00
31677;DHT22;18385;51.572;6.578;2024-02-21T06:25:42;12.80;65.00
31677;DHT22;18385;51.572;6.578;2024-02-21T06:28:08;12.80;64.90
31677;DHT22;18385;51.572;6.578;2024-02-21T06:30:34;12.70;64.90
31677;DHT22;18385;51.572;6.578;2024-02-21T06:33:00;12.70;64.90
31677;DHT22;18385;51.572;6.578;2024-02-21T06:35:28;12.80;65.00
31677;DHT22;18385;51.572;6.578;2024-02-21T06:37:53;12.80;65.00
31677;DHT22;18385;51.572;6.578;2024-02-21T06:40:21;12.70;64.90
31677;DHT22;18385;51.572;6.578;2024-02-21T06:42:47;12.80;65.00
31677;DHT22;18385;51.572;6.578;2024-02-21T06:45:13;12.80;64.90
31677;DHT22;18385;51.572;6.578;2024-02-21T06:47:38;12.80;65.00
31677;DHT22;18385;51.572;6.578;2024-02-21T06:50:04;12.80;64.90
31677;DHT22;18385;51.572;6.578;2024-02-21T06:52:30;12.80;64.90
31677;DHT22;18385;51.572;6.578;2024-02-21T06:54:56;12.80;65.00
31677;DHT22;18385;51.572;6.578;2024-02-21T06:57:22;12.80;64.90
31677;DHT22;18385;51.572;6.578;2024-02-21T06:59:48;12.80;64.90
31677;DHT22;18385;51.572;6.578;2024-02-21T07:02:13;12.80;64.90
31677;DHT22;18385;51.572;6.578;2024-02-21T07:04:39;12.80;64.90
31677;DHT22;18385;51.572;6.578;2024-02-21T07:07:05;12.80;64.80
31677;DHT22;18385;51.572;6.578;2024-02-21T07:09:30;12.80;65.20
31677;DHT22;18385;51.572;6.578;2024-02-21T07:11:58;12.80;64.90
31677;DHT22;18385;51.572;6.578;2024-02-21T07:14:24;12.80;64.80
31677;DHT22;18385;51.572;6.578;2024-02-21T07:16:49;12.90;64.90
31677;DHT22;18385;51.572;6.578;2024-02-21T07:19:15;12.90;64.90
31677;DHT22;18385;51.572;6.578;2024-02-21T07:21:41;12.90;64.90
31677;DHT22;18385;51.572;6.578;2024-02-21T07:24:09;12.80;64.90
31677;DHT22;18385;51.572;6.578;2024-02-21T07:26:35;12.90;65.00
31677;DHT22;18385;51.572;6.578;2024-02-21T07:29:01;13.00;64.90
31677;DHT22;18385;51.572;6.578;2024-02-21T07:31:26;13.00;64.80
31677;DHT22;18385;51.572;6.578;2024-02-21T07:33:52;13.00;65.50
31677;DHT22;18385;51.572;6.578;2024-02-21T07:36:28;13.00;64.80
31677;DHT22;18385;51.572;6.578;2024-02-21T07:38:55;13.00;64.80
31677;DHT22;18385;51.572;6.578;2024-02-21T07:41:20;13.00;64.80
31677;DHT22;18385;51.572;6.578;2024-02-21T07:43:46;13.00;64.70
31677;DHT22;18385;51.572;6.578;2024-02-21T07:46:14;13.00;64.70
31677;DHT22;18385;51.572;6.578;2024-02-21T07:48:40;13.00;64.70
31677;DHT22;18385;51.572;6.578;2024-02-21T07:51:06;13.00;64.70
31677;DHT22;18385;51.572;6.578;2024-02-21T07:53:31;13.00;64.70
31677;DHT22;18385;51.572;6.578;2024-02-21T07:55:57;13.10;64.80
31677;DHT22;18385;51.572;6.578;2024-02-21T07:58:23;13.10;64.70
31677;DHT22;18385;51.572;6.578;2024-02-21T08:00:49;13.10;64.80
31677;DHT22;18385;51.572;6.578;2024-02-21T08:03:14;13.20;64.60
31677;DHT22;18385;51.572;6.578;2024-02-21T08:05:43;13.20;64.70
31677;DHT22;18385;51.572;6.578;2024-02-21T08:08:09;13.30;65.40
31677;DHT22;18385;51.572;6.578;2024-02-21T08:10:35;13.30;64.50
31677;DHT22;18385;51.572;6.578;2024-02-21T08:13:00;13.40;64.60
31677;DHT22;18385;51.572;6.578;2024-02-21T08:15:26;13.40;64.50
31677;DHT22;18385;51.572;6.578;2024-02-21T08:17:55;13.40;64.40
31677;DHT22;18385;51.572;6.578;2024-02-21T08:20:25;13.40;64.20
31677;DHT22;18385;51.572;6.578;2024-02-21T08:22:50;13.40;64.40
31677;DHT22;18385;51.572;6.578;2024-02-21T08:25:18;13.40;64.20
31677;DHT22;18385;51.572;6.578;2024-02-21T08:27:44;13.40;64.30
31677;DHT22;18385;51.572;6.578;2024-02-21T08:30:11;13.50;64.30
31677;DHT22;18385;51.572;6.578;2024-02-21T08:32:37;13.50;64.00
31677;DHT22;18385;51.572;6.578;2024-02-21T08:35:03;13.60;64.10
31677;DHT22;18385;51.572;6.578;2024-02-21T08:37:30;13.70;64.10
31677;DHT22;18385;51.572;6.578;2024-02-21T08:39:56;13.70;64.10
31677;DHT22;18385;51.572;6.578;2024-02-21T08:42:22;13.80;64.00
31677;DHT22;18385;51.572;6.578;2024-02-21T08:44:48;13.80;63.60
31677;DHT22;18385;51.572;6.578;2024-02-21T08:47:14;13.80;63.60
31677;DHT22;18385;51.572;6.578;2024-02-21T08:49:40;13.80;63.70
31677;DHT22;18385;51.572;6.578;2024-02-21T08:52:06;13.80;63.50
31677;DHT22;18385;51.572;6.578;2024-02-21T08:54:32;13.90;63.60
31677;DHT22;18385;51.572;6.578;2024-02-21T08:57:00;13.90;63.40
31677;DHT22;18385;51.572;6.578;2024-02-21T08:59:26;13.90;63.40
31677;DHT22;18385;51.572;6.578;2024-02-21T09:01:52;13.90;63.20
31677;DHT22;18385;51.572;6.578;2024-02-21T09:04:20;13.90;63.30
31677;DHT22;18385;51.572;6.578;2024-02-21T09:06:46;13.80;63.10
31677;DHT22;18385;51.572;6.578;2024-02-21T09:09:12;13.90;63.30
31677;DHT22;18385;51.572;6.578;2024-02-21T09:11:38;14.00;63.20
31677;DHT22;18385;51.572;6.578;2024-02-21T09:14:05;13.90;63.00
31677;DHT22;18385;51.572;6.578;2024-02-21T09:16:31;13.80;62.90
31677;DHT22;18385;51.572;6.578;2024-02-21T09:18:57;13.80;63.10
31677;DHT22;18385;51.572;6.578;2024-02-21T09:21:23;13.80;64.00
31677;DHT22;18385;51.572;6.578;2024-02-21T09:23:49;13.90;63.30
31677;DHT22;18385;51.572;6.578;2024-02-21T09:26:15;14.00;63.10
31677;DHT22;18385;51.572;6.578;2024-02-21T09:28:43;13.90;63.00
31677;DHT22;18385;51.572;6.578;2024-02-21T09:31:08;14.00;63.10
31677;DHT22;18385;51.572;6.578;2024-02-21T09:33:34;14.00;62.80
31677;DHT22;18385;51.572;6.578;2024-02-21T09:36:00;14.00;62.90
31677;DHT22;18385;51.572;6.578;2024-02-21T09:38:26;14.10;62.90
31677;DHT22;18385;51.572;6.578;2024-02-21T09:41:25;14.00;62.60
31677;DHT22;18385;51.572;6.578;2024-02-21T09:43:45;14.00;62.70
31677;DHT22;18385;51.572;6.578;2024-02-21T09:46:18;14.00;62.60
31677;DHT22;18385;51.572;6.578;2024-02-21T09:49:12;14.00;62.80
31677;DHT22;18385;51.572;6.578;2024-02-21T09:51:40;14.00;62.60
31677;DHT22;18385;51.572;6.578;2024-02-21T09:54:07;13.80;62.30
31677;DHT22;18385;51.572;6.578;2024-02-21T09:56:33;13.70;62.50
31677;DHT22;18385;51.572;6.578;2024-02-21T09:58:59;13.70;62.70
31677;DHT22;18385;51.572;6.578;2024-02-21T10:01:28;13.80;62.80
31677;DHT22;18385;51.572;6.578;2024-02-21T10:03:55;13.80;62.90
31677;DHT22;18385;51.572;6.578;2024-02-21T10:06:21;13.90;63.00
31677;DHT22;18385;51.572;6.578;2024-02-21T10:08:55;14.00;62.90
31677;DHT22;18385;51.572;6.578;2024-02-21T10:11:25;14.10;62.70
31677;DHT22;18385;51.572;6.578;2024-02-21T10:13:51;14.10;62.50
31677;DHT22;18385;51.572;6.578;2024-02-21T10:16:17;14.20;62.50
31677;DHT22;18385;51.572;6.578;2024-02-21T10:18:42;14.20;62.20
31677;DHT22;18385;51.572;6.578;2024-02-21T10:21:08;14.20;62.30
31677;DHT22;18385;51.572;6.578;2024-02-21T10:23:49;14.20;62.40
31677;DHT22;18385;51.572;6.578;2024-02-21T10:26:15;14.30;62.30
31677;DHT22;18385;51.572;6.578;2024-02-21T10:28:41;14.30;62.20
31677;DHT22;18385;51.572;6.578;2024-02-21T10:31:27;14.30;62.20
31677;DHT22;18385;51.572;6.578;2024-02-21T10:34:02;14.30;62.20
31677;DHT22;18385;51.572;6.578;2024-02-21T10:36:29;14.30;62.10
31677;DHT22;18385;51.572;6.578;2024-02-21T10:38:55;14.30;62.20
31677;DHT22;18385;51.572;6.578;2024-02-21T10:41:22;14.30;62.10
31677;DHT22;18385;51.572;6.578;2024-02-21T10:43:53;14.30;62.10
31677;DHT22;18385;51.572;6.578;2024-02-21T10:46:21;14.40;62.00
31677;DHT22;18385;51.572;6.578;2024-02-21T10:48:48;14.40;62.00
31677;DHT22;18385;51.572;6.578;2024-02-21T10:51:18;14.50;62.00
31677;DHT22;18385;51.572;6.578;2024-02-21T10:56:21;14.70;62.00
31677;DHT22;18385;51.572;6.578;2024-02-21T10:58:52;14.80;61.90
31677;DHT22;18385;51.572;6.578;2024-02-21T11:01:18;14.90;61.80
31677;DHT22;18385;51.572;6.578;2024-02-21T11:03:52;15.10;61.60
31677;DHT22;18385;51.572;6.578;2024-02-21T11:06:20;15.20;61.20
31677;DHT22;18385;51.572;6.578;2024-02-21T11:08:47;15.40;61.40
31677;DHT22;18385;51.572;6.578;2024-02-21T11:11:13;15.50;61.10
31677;DHT22;18385;51.572;6.578;2024-02-21T11:13:44;15.60;60.70
31677;DHT22;18385;51.572;6.578;2024-02-21T11:16:21;15.50;60.10
31677;DHT22;18385;51.572;6.578;2024-02-21T11:18:47;15.40;60.20
31677;DHT22;18385;51.572;6.578;2024-02-21T11:21:12;15.40;60.60
31677;DHT22;18385;51.572;6.578;2024-02-21T11:23:38;15.40;60.70
31677;DHT22;18385;51.572;6.578;2024-02-21T11:26:08;15.40;60.70
31677;DHT22;18385;51.572;6.578;2024-02-21T11:28:35;15.50;60.40
31677;DHT22;18385;51.572;6.578;2024-02-21T11:31:10;15.50;60.30
31677;DHT22;18385;51.572;6.578;2024-02-21T11:33:40;15.50;60.00
31677;DHT22;18385;51.572;6.578;2024-02-21T11:36:07;15.50;60.00
31677;DHT22;18385;51.572;6.578;2024-02-21T11:38:33;15.60;60.20
31677;DHT22;18385;51.572;6.578;2024-02-21T11:40:58;15.70;60.00
31677;DHT22;18385;51.572;6.578;2024-02-21T11:43:24;15.70;59.80
31677;DHT22;18385;51.572;6.578;2024-02-21T11:45:50;15.70;59.80
31677;DHT22;18385;51.572;6.578;2024-02-21T11:48:16;15.70;59.70
31677;DHT22;18385;51.572;6.578;2024-02-21T11:50:42;15.70;59.70
31677;DHT22;18385;51.572;6.578;2024-02-21T11:53:07;15.70;59.50
31677;DHT22;18385;51.572;6.578;2024-02-21T11:55:34;15.60;59.50
31677;DHT22;18385;51.572;6.578;2024-02-21T11:58:00;15.60;59.70
31677;DHT22;18385;51.572;6.578;2024-02-21T12:00:26;15.80;59.70
31677;DHT22;18385;51.572;6.578;2024-02-21T12:02:51;15.80;59.50
31677;DHT22;18385;51.572;6.578;2024-02-21T12:05:19;15.80;59.10
31677;DHT22;18385;51.572;6.578;2024-02-21T12:07:46;15.80;59.10
31677;DHT22;18385;51.572;6.578;2024-02-21T12:10:12;15.70;58.80
31677;DHT22;18385;51.572;6.578;2024-02-21T12:12:39;15.80;59.20
31677;DHT22;18385;51.572;6.578;2024-02-21T12:15:05;15.80;58.90
31677;DHT22;18385;51.572;6.578;2024-02-21T12:17:35;15.80;59.00
31677;DHT22;18385;51.572;6.578;2024-02-21T12:20:04;15.80;58.90
31677;DHT22;18385;51.572;6.578;2024-02-21T12:22:31;15.90;59.00
31677;DHT22;18385;51.572;6.578;2024-02-21T12:25:03;16.00;58.90
31677;DHT22;18385;51.572;6.578;2024-02-21T12:27:29;16.00;58.70
31677;DHT22;18385;51.572;6.578;2024-02-21T12:29:55;16.00;58.50
31677;DHT22;18385;51.572;6.578;2024-02-21T12:32:21;16.00;58.40
31677;DHT22;18385;51.572;6.578;2024-02-21T12:34:46;16.10;58.60
31677;DHT22;18385;51.572;6.578;2024-02-21T12:37:12;16.20;58.50
31677;DHT22;18385;51.572;6.578;2024-02-21T12:39:38;16.30;58.90
31677;DHT22;18385;51.572;6.578;2024-02-21T12:42:04;16.40;58.20
31677;DHT22;18385;51.572;6.578;2024-02-21T12:44:30;16.40;57.90
31677;DHT22;18385;51.572;6.578;2024-02-21T12:46:55;16.50;57.90
31677;DHT22;18385;51.572;6.578;2024-02-21T12:49:21;16.50;57.80
31677;DHT22;18385;51.572;6.578;2024-02-21T12:51:47;16.60;57.60
31677;DHT22;18385;51.572;6.578;2024-02-21T12:54:13;16.60;57.40
31677;DHT22;18385;51.572;6.578;2024-02-21T12:56:38;16.60;57.40
31677;DHT22;18385;51.572;6.578;2024-02-21T12:59:05;16.70;57.50
31677;DHT22;18385;51.572;6.578;2024-02-21T13:01:35;16.70;57.50
31677;DHT22;18385;51.572;6.578;2024-02-21T13:04:01;16.80;57.30
31677;DHT22;18385;51.572;6.578;2024-02-21T13:06:27;16.90;57.20
31677;DHT22;18385;51.572;6.578;2024-02-21T13:08:54;17.00;57.20
31677;DHT22;18385;51.572;6.578;2024-02-21T13:11:20;17.00;57.10
31677;DHT22;18385;51.572;6.578;2024-02-21T13:13:46;16.90;56.80
31677;DHT22;18385;51.572;6.578;2024-02-21T13:16:11;17.00;56.90
31677;DHT22;18385;51.572;6.578;2024-02-21T13:18:37;16.90;56.80
31677;DHT22;18385;51.572;6.578;2024-02-21T13:21:06;16.90;56.90
31677;DHT22;18385;51.572;6.578;2024-02-21T13:23:33;16.90;56.80
31677;DHT22;18385;51.572;6.578;2024-02-21T13:25:59;16.90;56.60
31677;DHT22;18385;51.572;6.578;2024-02-21T13:28:24;16.90;56.60
31677;DHT22;18385;51.572;6.578;2024-02-21T13:30:50;16.80;56.60
31677;DHT22;18385;51.572;6.578;2024-02-21T13:33:16;16.90;56.60
31677;DHT22;18385;51.572;6.578;2024-02-21T13:35:41;16.90;56.50
31677;DHT22;18385;51.572;6.578;2024-02-21T13:38:07;16.90;56.30
31677;DHT22;18385;51.572;6.578;2024-02-21T13:40:33;16.80;56.20
31677;DHT22;18385;51.572;6.578;2024-02-21T13:42:58;16.80;56.30
31677;DHT22;18385;51.572;6.578;2024-02-21T13:45:24;16.80;56.30
31677;DHT22;18385;51.572;6.578;2024-02-21T13:47:50;16.80;56.30
31677;DHT22;18385;51.572;6.578;2024-02-21T13:50:16;16.90;56.30
31677;DHT22;18385;51.572;6.578;2024-02-21T13:52:42;16.90;56.10
31677;DHT22;18385;51.572;6.578;2024-02-21T13:55:07;16.80;56.00
31677;DHT22;18385;51.572;6.578;2024-02-21T13:57:36;16.80;56.10
31677;DHT22;18385;51.572;6.578;2024-02-21T14:00:03;16.80;56.10
31677;DHT22;18385;51.572;6.578;2024-02-21T14:02:37;16.70;56.10
31677;DHT22;18385;51.572;6.578;2024-02-21T14:05:05;16.70;56.10
31677;DHT22;18385;51.572;6.578;2024-02-21T14:07:31;16.80;56.10
31677;DHT22;18385;51.572;6.578;2024-02-21T14:09:59;16.90;56.00
31677;DHT22;18385;51.572;6.578;2024-02-21T14:12:24;17.00;55.90
31677;DHT22;18385;51.572;6.578;2024-02-21T14:14:50;17.10;55.90
31677;DHT22;18385;51.572;6.578;2024-02-21T14:17:17;17.20;55.90
31677;DHT22;18385;51.572;6.578;2024-02-21T14:19:43;17.30;55.70
31677;DHT22;18385;51.572;6.578;2024-02-21T14:22:09;17.20;55.40
31677;DHT22;18385;51.572;6.578;2024-02-21T14:24:36;17.20;55.20
31677;DHT22;18385;51.572;6.578;2024-02-21T14:27:02;17.10;55.20
31677;DHT22;18385;51.572;6.578;2024-02-21T14:29:29;16.90;55.00
31677;DHT22;18385;51.572;6.578;2024-02-21T14:31:54;16.80;55.10
31677;DHT22;18385;51.572;6.578;2024-02-21T14:34:20;16.60;54.80
31677;DHT22;18385;51.572;6.578;2024-02-21T14:36:46;16.40;55.00
31677;DHT22;18385;51.572;6.578;2024-02-21T14:39:11;16.30;55.60
31677;DHT22;18385;51.572;6.578;2024-02-21T14:41:37;16.30;55.30
31677;DHT22;18385;51.572;6.578;2024-02-21T14:44:05;16.30;55.90
31677;DHT22;18385;51.572;6.578;2024-02-21T14:46:31;16.20;55.10
31677;DHT22;18385;51.572;6.578;2024-02-21T14:48:57;16.20;55.20
31677;DHT22;18385;51.572;6.578;2024-02-21T14:55:10;16.10;55.10
31677;DHT22;18385;51.572;6.578;2024-02-21T14:57:37;16.00;55.20
31677;DHT22;18385;51.572;6.578;2024-02-21T15:00:07;16.00;55.10
31677;DHT22;18385;51.572;6.578;2024-02-21T15:02:33;16.00;55.20
31677;DHT22;18385;51.572;6.578;2024-02-21T15:05:00;15.90;55.20
31677;DHT22;18385;51.572;6.578;2024-02-21T15:07:26;15.90;55.00
31677;DHT22;18385;51.572;6.578;2024-02-21T15:09:52;15.90;55.20
31677;DHT22;18385;51.572;6.578;2024-02-21T15:12:18;15.90;55.20
31677;DHT22;18385;51.572;6.578;2024-02-21T15:14:44;15.90;55.20
31677;DHT22;18385;51.572;6.578;2024-02-21T15:17:13;15.90;55.10
31677;DHT22;18385;51.572;6.578;2024-02-21T15:19:39;15.90;55.10
31677;DHT22;18385;51.572;6.578;2024-02-21T15:22:09;15.90;55.20
31677;DHT22;18385;51.572;6.578;2024-02-21T15:24:37;15.90;55.20
31677;DHT22;18385;51.572;6.578;2024-02-21T15:27:03;15.80;55.10
31677;DHT22;18385;51.572;6.578;2024-02-21T15:29:29;15.80;55.00
31677;DHT22;18385;51.572;6.578;2024-02-21T15:31:55;15.90;55.10